sensor_id;sensor_type;location;lat;lon;timestamp;pressure;altitude;pressure_sealevel;temperature;humidity
28344;BME280;15597;50.914;6.638;2023-07-20T00:01:31;100666.06;;;25.98;38.24
28344;BME280;15597;50.914;6.638;2023-07-20T00:03:57;100659.44;;;25.92;38.08
28344;BME280;15597;50.914;6.638;2023-07-20T00:06:26;100666.28;;;25.85;38.41
28344;BME280;15597;50.914;6.638;2023-07-20T00:08:56;100664.84;;;25.80;38.21
28344;BME280;15597;50.914;6.638;2023-07-20T00:11:26;100659.75;;;25.77;38.59
28344;BME280;15597;50.914;6.638;2023-07-20T00:13:52;100661.56;;;25.77;38.71
28344;BME280;15597;50.914;6.638;2023-07-20T00:16:18;100655.50;;;25.75;38.78
28344;BME280;15597;50.914;6.638;2023-07-20T00:18:43;100653.78;;;25.74;38.43
28344;BME280;15597;50.914;6.638;2023-07-20T00:21:09;100655.63;;;25.73;38.69
28344;BME280;15597;50.914;6.638;2023-07-20T00:23:35;100645.03;;;25.72;39.11
28344;BME280;15597;50.914;6.638;2023-07-20T00:26:01;100653.78;;;25.74;38.70
28344;BME280;15597;50.914;6.638;2023-07-20T00:28:26;100652.25;;;25.71;38.67
28344;BME280;15597;50.914;6.638;2023-07-20T00:30:52;100655.19;;;25.68;38.82
28344;BME280;15597;50.914;6.638;2023-07-20T00:33:18;100655.44;;;25.65;39.13
28344;BME280;15597;50.914;6.638;2023-07-20T00:35:44;100650.34;;;25.62;39.62
28344;BME280;15597;50.914;6.638;2023-07-20T00:38:10;100654.25;;;25.58;39.52
28344;BME280;15597;50.914;6.638;2023-07-20T00:40:36;100642.09;;;25.54;39.50
28344;BME280;15597;50.914;6.638;2023-07-20T00:43:02;100651.38;;;25.49;39.53
28344;BME280;15597;50.914;6.638;2023-07-20T00:45:29;100650.78;;;25.46;39.71
28344;BME280;15597;50.914;6.638;2023-07-20T00:47:55;100643.94;;;25.42;40.19
28344;BME280;15597;50.914;6.638;2023-07-20T00:50:22;100647.59;;;25.41;39.54
28344;BME280;15597;50.914;6.638;2023-07-20T00:52:48;100645.75;;;25.41;39.94
28344;BME280;15597;50.914;6.638;2023-07-20T00:55:14;100648.44;;;25.41;39.90
28344;BME280;15597;50.914;6.638;2023-07-20T00:57:39;100653.78;;;25.41;39.42
28344;BME280;15597;50.914;6.638;2023-07-20T01:00:06;100654.66;;;25.42;39.67
28344;BME280;15597;50.914;6.638;2023-07-20T01:02:32;100654.78;;;25.40;39.56
28344;BME280;15597;50.914;6.638;2023-07-20T01:04:59;100655.03;;;25.37;39.95
28344;BME280;15597;50.914;6.638;2023-07-20T01:07:31;100653.47;;;25.34;39.76
28344;BME280;15597;50.914;6.638;2023-07-20T01:10:07;100656.78;;;25.27;40.00
28344;BME280;15597;50.914;6.638;2023-07-20T01:15:06;100651.69;;;25.23;40.01
28344;BME280;15597;50.914;6.638;2023-07-20T01:17:34;100661.56;;;25.23;40.52
28344;BME280;15597;50.914;6.638;2023-07-20T01:19:59;100657.03;;;25.23;40.62
28344;BME280;15597;50.914;6.638;2023-07-20T01:25:25;100657.06;;;25.12;40.04
28344;BME280;15597;50.914;6.638;2023-07-20T01:30:56;100653.19;;;25.05;40.46
28344;BME280;15597;50.914;6.638;2023-07-20T01:33:25;100647.59;;;25.08;40.69
28344;BME280;15597;50.914;6.638;2023-07-20T01:35:58;100643.59;;;25.02;40.90
28344;BME280;15597;50.914;6.638;2023-07-20T01:38:25;100639.69;;;25.06;40.58
28344;BME280;15597;50.914;6.638;2023-07-20T01:40:52;100644.19;;;25.06;41.08
28344;BME280;15597;50.914;6.638;2023-07-20T01:43:18;100642.50;;;25.05;40.62
28344;BME280;15597;50.914;6.638;2023-07-20T01:45:44;100639.81;;;25.05;40.75
28344;BME280;15597;50.914;6.638;2023-07-20T01:48:10;100639.94;;;25.03;41.00
28344;BME280;15597;50.914;6.638;2023-07-20T01:50:36;100637.28;;;25.03;40.92
28344;BME280;15597;50.914;6.638;2023-07-20T01:53:01;100637.38;;;25.02;40.94
28344;BME280;15597;50.914;6.638;2023-07-20T01:55:27;100640.06;;;25.02;40.92
28344;BME280;15597;50.914;6.638;2023-07-20T01:57:55;100641.03;;;25.01;41.00
28344;BME280;15597;50.914;6.638;2023-07-20T02:00:20;100640.31;;;24.99;41.01
28344;BME280;15597;50.914;6.638;2023-07-20T02:02:50;100644.94;;;24.97;41.31
28344;BME280;15597;50.914;6.638;2023-07-20T02:05:16;100634.25;;;24.97;41.02
28344;BME280;15597;50.914;6.638;2023-07-20T02:07:42;100636.09;;;24.96;41.44
28344;BME280;15597;50.914;6.638;2023-07-20T02:10:08;100638.16;;;24.92;41.74
28344;BME280;15597;50.914;6.638;2023-07-20T02:12:34;100634.75;;;24.90;41.34
28344;BME280;15597;50.914;6.638;2023-07-20T02:15:01;100636.69;;;24.88;41.94
28344;BME280;15597;50.914;6.638;2023-07-20T02:17:28;100632.44;;;24.86;41.54
28344;BME280;15597;50.914;6.638;2023-07-20T02:19:54;100627.31;;;24.83;41.78
28344;BME280;15597;50.914;6.638;2023-07-20T02:22:20;100630.16;;;24.81;41.45
28344;BME280;15597;50.914;6.638;2023-07-20T02:24:46;100632.94;;;24.79;41.48
28344;BME280;15597;50.914;6.638;2023-07-20T02:27:12;100637.44;;;24.79;42.16
28344;BME280;15597;50.914;6.638;2023-07-20T02:29:38;100639.41;;;24.77;41.58
28344;BME280;15597;50.914;6.638;2023-07-20T02:32:03;100639.41;;;24.77;42.12
28344;BME280;15597;50.914;6.638;2023-07-20T02:34:29;100634.03;;;24.77;41.57
28344;BME280;15597;50.914;6.638;2023-07-20T02:36:55;100636.00;;;24.75;41.95
28344;BME280;15597;50.914;6.638;2023-07-20T02:39:23;100631.69;;;24.72;41.79
28344;BME280;15597;50.914;6.638;2023-07-20T02:41:49;100629.16;;;24.71;42.17
28344;BME280;15597;50.914;6.638;2023-07-20T02:44:14;100632.09;;;24.68;42.12
28344;BME280;15597;50.914;6.638;2023-07-20T02:46:40;100629.41;;;24.68;42.34
28344;BME280;15597;50.914;6.638;2023-07-20T02:49:06;100631.94;;;24.69;41.81
28344;BME280;15597;50.914;6.638;2023-07-20T02:51:32;100636.47;;;24.69;41.96
28344;BME280;15597;50.914;6.638;2023-07-20T02:53:58;100634.75;;;24.68;42.07
28344;BME280;15597;50.914;6.638;2023-07-20T02:56:24;100640.13;;;24.68;42.15
28344;BME280;15597;50.914;6.638;2023-07-20T02:58:49;100638.53;;;24.65;41.85
28344;BME280;15597;50.914;6.638;2023-07-20T03:01:15;100634.03;;;24.65;42.04
28344;BME280;15597;50.914;6.638;2023-07-20T03:03:42;100636.72;;;24.65;42.17
28344;BME280;15597;50.914;6.638;2023-07-20T03:06:13;100641.44;;;24.62;42.20
28344;BME280;15597;50.914;6.638;2023-07-20T03:08:40;100644.03;;;24.41;42.25
28344;BME280;15597;50.914;6.638;2023-07-20T03:11:07;100647.66;;;24.51;42.31
28344;BME280;15597;50.914;6.638;2023-07-20T03:13:32;100646.44;;;24.55;42.56
28344;BME280;15597;50.914;6.638;2023-07-20T03:15:58;100647.53;;;24.53;42.33
28344;BME280;15597;50.914;6.638;2023-07-20T03:18:23;100641.34;;;24.52;42.35
28344;BME280;15597;50.914;6.638;2023-07-20T03:20:49;100645.72;;;24.53;42.27
28344;BME280;15597;50.914;6.638;2023-07-20T03:23:14;100637.94;;;24.50;42.53
28344;BME280;15597;50.914;6.638;2023-07-20T03:25:41;100648.63;;;24.50;42.08
28344;BME280;15597;50.914;6.638;2023-07-20T03:28:07;100645.25;;;24.48;42.05
28344;BME280;15597;50.914;6.638;2023-07-20T03:30:33;100639.88;;;24.48;42.26
28344;BME280;15597;50.914;6.638;2023-07-20T03:32:59;100639.88;;;24.48;42.58
28344;BME280;15597;50.914;6.638;2023-07-20T03:35:25;100638.44;;;24.44;42.23
28344;BME280;15597;50.914;6.638;2023-07-20T03:37:50;100643.06;;;24.42;42.52
28344;BME280;15597;50.914;6.638;2023-07-20T03:40:16;100653.63;;;24.43;42.50
28344;BME280;15597;50.914;6.638;2023-07-20T03:42:41;100656.19;;;24.45;42.30
28344;BME280;15597;50.914;6.638;2023-07-20T03:45:07;100656.91;;;24.47;42.35
28344;BME280;15597;50.914;6.638;2023-07-20T03:47:33;100655.69;;;24.51;42.40
28344;BME280;15597;50.914;6.638;2023-07-20T03:49:58;100655.56;;;24.53;42.16
28344;BME280;15597;50.914;6.638;2023-07-20T03:52:24;100663.34;;;24.56;42.05
28344;BME280;15597;50.914;6.638;2023-07-20T03:54:50;100660.56;;;24.57;42.18
28344;BME280;15597;50.914;6.638;2023-07-20T03:57:17;100662.25;;;24.58;41.78
28344;BME280;15597;50.914;6.638;2023-07-20T03:59:45;100664.19;;;24.56;41.87
28344;BME280;15597;50.914;6.638;2023-07-20T04:02:11;100669.31;;;24.59;41.79
28344;BME280;15597;50.914;6.638;2023-07-20T04:04:37;100671.97;;;24.59;42.16
28344;BME280;15597;50.914;6.638;2023-07-20T04:07:03;100675.50;;;24.60;42.21
28344;BME280;15597;50.914;6.638;2023-07-20T04:09:29;100674.91;;;24.56;41.95
28344;BME280;15597;50.914;6.638;2023-07-20T04:11:54;100675.88;;;24.55;42.27
28344;BME280;15597;50.914;6.638;2023-07-20T04:14:20;100680.50;;;24.53;42.35
28344;BME280;15597;50.914;6.638;2023-07-20T04:16:46;100680.75;;;24.50;42.14
28344;BME280;15597;50.914;6.638;2023-07-20T04:19:12;100673.94;;;24.46;42.04
28344;BME280;15597;50.914;6.638;2023-07-20T04:21:41;100681.47;;;24.41;42.13
28344;BME280;15597;50.914;6.638;2023-07-20T04:24:07;100669.28;;;24.36;42.72
28344;BME280;15597;50.914;6.638;2023-07-20T04:26:33;100677.91;;;24.29;42.68
28344;BME280;15597;50.914;6.638;2023-07-20T04:28:58;100677.28;;;24.25;42.80
28344;BME280;15597;50.914;6.638;2023-07-20T04:31:33;100679.47;;;24.20;42.79
28344;BME280;15597;50.914;6.638;2023-07-20T04:33:59;100690.41;;;24.17;42.78
28344;BME280;15597;50.914;6.638;2023-07-20T04:36:25;100690.66;;;24.14;42.73
28344;BME280;15597;50.914;6.638;2023-07-20T04:38:52;100686.28;;;24.13;42.93
28344;BME280;15597;50.914;6.638;2023-07-20T04:41:20;100687.38;;;24.10;42.90
28344;BME280;15597;50.914;6.638;2023-07-20T04:43:47;100689.19;;;24.10;42.89
28344;BME280;15597;50.914;6.638;2023-07-20T04:46:17;100683.84;;;24.10;42.91
28344;BME280;15597;50.914;6.638;2023-07-20T04:48:44;100685.69;;;24.09;43.17
28344;BME280;15597;50.914;6.638;2023-07-20T04:51:10;100687.47;;;24.09;42.95
28344;BME280;15597;50.914;6.638;2023-07-20T04:53:36;100690.16;;;24.09;42.91
28344;BME280;15597;50.914;6.638;2023-07-20T04:56:02;100693.94;;;24.06;42.95
28344;BME280;15597;50.914;6.638;2023-07-20T04:58:28;100689.66;;;24.03;43.40
28344;BME280;15597;50.914;6.638;2023-07-20T05:00:54;100689.25;;;23.97;43.38
28344;BME280;15597;50.914;6.638;2023-07-20T05:03:20;100686.94;;;23.92;43.37
28344;BME280;15597;50.914;6.638;2023-07-20T05:05:49;100686.31;;;23.88;43.67
28344;BME280;15597;50.914;6.638;2023-07-20T05:08:15;100690.56;;;23.91;43.83
28344;BME280;15597;50.914;6.638;2023-07-20T05:10:41;100692.50;;;23.89;43.77
28344;BME280;15597;50.914;6.638;2023-07-20T05:13:08;100691.69;;;23.88;44.00
28344;BME280;15597;50.914;6.638;2023-07-20T05:15:33;100695.31;;;23.87;43.72
28344;BME280;15597;50.914;6.638;2023-07-20T05:18:00;100695.31;;;23.87;43.92
28344;BME280;15597;50.914;6.638;2023-07-20T05:20:26;100688.88;;;23.90;44.05
28344;BME280;15597;50.914;6.638;2023-07-20T05:22:53;100691.78;;;23.87;43.85
28344;BME280;15597;50.914;6.638;2023-07-20T05:25:19;100694.44;;;23.87;43.88
28344;BME280;15597;50.914;6.638;2023-07-20T05:27:48;100691.03;;;23.85;44.30
28344;BME280;15597;50.914;6.638;2023-07-20T05:30:13;100694.91;;;23.81;44.11
28344;BME280;15597;50.914;6.638;2023-07-20T05:32:39;100693.94;;;23.82;44.43
28344;BME280;15597;50.914;6.638;2023-07-20T05:35:05;100700.25;;;23.81;44.38
28344;BME280;15597;50.914;6.638;2023-07-20T05:37:31;100697.69;;;23.79;44.58
28344;BME280;15597;50.914;6.638;2023-07-20T05:39:57;100699.63;;;23.77;44.25
28344;BME280;15597;50.914;6.638;2023-07-20T05:42:22;100696.13;;;23.76;44.35
28344;BME280;15597;50.914;6.638;2023-07-20T05:44:48;100697.81;;;23.77;44.51
28344;BME280;15597;50.914;6.638;2023-07-20T05:47:15;100698.56;;;23.80;44.42
28344;BME280;15597;50.914;6.638;2023-07-20T05:49:40;100702.94;;;23.81;44.61
28344;BME280;15597;50.914;6.638;2023-07-20T05:52:06;100694.91;;;23.81;44.46
28344;BME280;15597;50.914;6.638;2023-07-20T05:54:32;100697.47;;;23.82;44.70
28344;BME280;15597;50.914;6.638;2023-07-20T05:56:57;100696.38;;;23.85;44.85
28344;BME280;15597;50.914;6.638;2023-07-20T05:59:24;100697.84;;;23.89;44.58
28344;BME280;15597;50.914;6.638;2023-07-20T06:01:49;100694.22;;;23.90;44.50
28344;BME280;15597;50.914;6.638;2023-07-20T06:04:15;100713.41;;;23.95;44.72
28344;BME280;15597;50.914;6.638;2023-07-20T06:06:41;100709.53;;;23.99;44.59
28344;BME280;15597;50.914;6.638;2023-07-20T06:09:06;100716.00;;;23.97;44.60
28344;BME280;15597;50.914;6.638;2023-07-20T06:11:38;100715.25;;;23.95;44.97
28344;BME280;15597;50.914;6.638;2023-07-20T06:14:04;100725.22;;;23.92;44.88
28344;BME280;15597;50.914;6.638;2023-07-20T06:16:30;100729.69;;;23.92;44.92
28344;BME280;15597;50.914;6.638;2023-07-20T06:18:55;100724.56;;;23.89;45.08
28344;BME280;15597;50.914;6.638;2023-07-20T06:21:21;100721.91;;;23.89;44.98
28344;BME280;15597;50.914;6.638;2023-07-20T06:23:46;100721.81;;;23.90;45.15
28344;BME280;15597;50.914;6.638;2023-07-20T06:26:12;100720.69;;;23.93;45.01
28344;BME280;15597;50.914;6.638;2023-07-20T06:28:37;100720.69;;;23.93;45.30
28344;BME280;15597;50.914;6.638;2023-07-20T06:31:03;100722.63;;;23.91;45.17
28344;BME280;15597;50.914;6.638;2023-07-20T06:33:29;100717.06;;;23.94;44.99
28344;BME280;15597;50.914;6.638;2023-07-20T06:35:55;100710.00;;;23.93;45.07
28344;BME280;15597;50.914;6.638;2023-07-20T06:38:22;100714.53;;;23.92;45.21
28344;BME280;15597;50.914;6.638;2023-07-20T06:40:49;100716.81;;;23.97;45.18
28344;BME280;15597;50.914;6.638;2023-07-20T06:43:15;100718.66;;;23.97;45.09
28344;BME280;15597;50.914;6.638;2023-07-20T06:45:42;100722.91;;;23.99;45.31
28344;BME280;15597;50.914;6.638;2023-07-20T06:48:07;100723.88;;;23.98;44.97
28344;BME280;15597;50.914;6.638;2023-07-20T06:50:33;100716.72;;;23.99;45.09
28344;BME280;15597;50.914;6.638;2023-07-20T06:52:59;100721.13;;;24.00;45.13
28344;BME280;15597;50.914;6.638;2023-07-20T06:55:25;100729.00;;;24.01;45.28
28344;BME280;15597;50.914;6.638;2023-07-20T06:57:51;100729.97;;;24.00;45.10
28344;BME280;15597;50.914;6.638;2023-07-20T07:00:17;100726.47;;;24.00;45.20
28344;BME280;15597;50.914;6.638;2023-07-20T07:02:43;100730.72;;;24.02;44.91
28344;BME280;15597;50.914;6.638;2023-07-20T07:05:09;100737.53;;;24.06;45.07
28344;BME280;15597;50.914;6.638;2023-07-20T07:07:34;100741.81;;;24.09;44.88
28344;BME280;15597;50.914;6.638;2023-07-20T07:10:01;100742.41;;;24.13;44.71
28344;BME280;15597;50.914;6.638;2023-07-20T07:12:26;100738.53;;;24.17;44.79
28344;BME280;15597;50.914;6.638;2023-07-20T07:14:52;100738.44;;;24.18;44.79
28344;BME280;15597;50.914;6.638;2023-07-20T07:17:18;100740.97;;;24.20;44.60
28344;BME280;15597;50.914;6.638;2023-07-20T07:19:44;100742.56;;;24.23;44.60
28344;BME280;15597;50.914;6.638;2023-07-20T07:22:10;100739.50;;;24.27;44.47
28344;BME280;15597;50.914;6.638;2023-07-20T07:24:35;100741.94;;;24.30;44.59
28344;BME280;15597;50.914;6.638;2023-07-20T07:27:02;100751.44;;;24.34;44.25
28344;BME280;15597;50.914;6.638;2023-07-20T07:29:28;100742.44;;;24.35;44.32
28344;BME280;15597;50.914;6.638;2023-07-20T07:31:53;100736.84;;;24.39;44.25
28344;BME280;15597;50.914;6.638;2023-07-20T07:34:19;100738.22;;;24.44;43.84
28344;BME280;15597;50.914;6.638;2023-07-20T07:36:45;100733.59;;;24.46;43.86
28344;BME280;15597;50.914;6.638;2023-07-20T07:39:10;100735.19;;;24.49;43.78
28344;BME280;15597;50.914;6.638;2023-07-20T07:41:36;100737.38;;;24.55;43.69
28344;BME280;15597;50.914;6.638;2023-07-20T07:44:02;100737.88;;;24.60;43.83
28344;BME280;15597;50.914;6.638;2023-07-20T07:46:27;100732.41;;;24.62;43.66
28344;BME280;15597;50.914;6.638;2023-07-20T07:48:53;100743.72;;;24.65;43.97
28344;BME280;15597;50.914;6.638;2023-07-20T07:51:19;100747.72;;;24.71;43.65
28344;BME280;15597;50.914;6.638;2023-07-20T07:53:46;100750.06;;;24.76;43.21
28344;BME280;15597;50.914;6.638;2023-07-20T07:56:11;100747.16;;;24.79;43.04
28344;BME280;15597;50.914;6.638;2023-07-20T07:58:37;100746.78;;;24.84;42.94
28344;BME280;15597;50.914;6.638;2023-07-20T08:01:03;100758.34;;;24.84;42.83
28344;BME280;15597;50.914;6.638;2023-07-20T08:03:28;100754.69;;;24.85;42.95
28344;BME280;15597;50.914;6.638;2023-07-20T08:05:54;100765.00;;;24.90;43.05
28344;BME280;15597;50.914;6.638;2023-07-20T08:08:25;100760.41;;;24.92;42.72
28344;BME280;15597;50.914;6.638;2023-07-20T08:10:54;100755.28;;;24.89;42.86
28344;BME280;15597;50.914;6.638;2023-07-20T08:13:20;100756.78;;;24.93;42.68
28344;BME280;15597;50.914;6.638;2023-07-20T08:15:49;100753.22;;;24.92;42.85
28344;BME280;15597;50.914;6.638;2023-07-20T08:18:15;100752.63;;;25.00;42.62
28344;BME280;15597;50.914;6.638;2023-07-20T08:20:44;100746.88;;;25.05;42.92
28344;BME280;15597;50.914;6.638;2023-07-20T08:23:09;100754.31;;;25.13;42.38
28344;BME280;15597;50.914;6.638;2023-07-20T08:25:36;100755.88;;;25.15;41.87
28344;BME280;15597;50.914;6.638;2023-07-20T08:28:05;100766.59;;;25.15;41.72
28344;BME280;15597;50.914;6.638;2023-07-20T08:30:44;100767.09;;;25.09;41.53
28344;BME280;15597;50.914;6.638;2023-07-20T08:33:12;100764.16;;;25.12;41.29
28344;BME280;15597;50.914;6.638;2023-07-20T08:35:38;100769.75;;;25.09;41.30
28344;BME280;15597;50.914;6.638;2023-07-20T08:38:03;100761.97;;;25.06;41.23
28344;BME280;15597;50.914;6.638;2023-07-20T08:40:34;100766.59;;;25.04;41.38
28344;BME280;15597;50.914;6.638;2023-07-20T08:43:04;100767.09;;;25.09;41.65
28344;BME280;15597;50.914;6.638;2023-07-20T08:45:32;100763.44;;;25.10;40.78
28344;BME280;15597;50.914;6.638;2023-07-20T08:47:58;100764.88;;;25.14;41.08
28344;BME280;15597;50.914;6.638;2023-07-20T08:50:26;100760.97;;;25.18;40.72
28344;BME280;15597;50.914;6.638;2023-07-20T08:52:57;100766.09;;;25.21;40.69
28344;BME280;15597;50.914;6.638;2023-07-20T08:55:23;100756.81;;;25.26;40.46
28344;BME280;15597;50.914;6.638;2023-07-20T08:57:50;100749.53;;;25.28;40.64
28344;BME280;15597;50.914;6.638;2023-07-20T09:00:20;100750.13;;;25.31;40.14
28344;BME280;15597;50.914;6.638;2023-07-20T09:02:46;100752.91;;;25.30;40.57
28344;BME280;15597;50.914;6.638;2023-07-20T09:05:12;100753.66;;;25.32;40.67
28344;BME280;15597;50.914;6.638;2023-07-20T09:07:40;100752.41;;;25.36;40.66
28344;BME280;15597;50.914;6.638;2023-07-20T09:10:06;100746.81;;;25.39;40.26
28344;BME280;15597;50.914;6.638;2023-07-20T09:12:37;100752.78;;;25.43;40.63
28344;BME280;15597;50.914;6.638;2023-07-20T09:15:04;100752.31;;;25.49;40.04
28344;BME280;15597;50.914;6.638;2023-07-20T09:17:30;100754.63;;;25.54;40.15
28344;BME280;15597;50.914;6.638;2023-07-20T09:19:55;100756.06;;;25.58;40.05
28344;BME280;15597;50.914;6.638;2023-07-20T09:22:21;100747.06;;;25.59;40.04
28344;BME280;15597;50.914;6.638;2023-07-20T09:24:47;100753.84;;;25.63;39.70
28344;BME280;15597;50.914;6.638;2023-07-20T09:27:12;100753.34;;;25.69;39.54
28344;BME280;15597;50.914;6.638;2023-07-20T09:29:51;100748.72;;;25.71;39.50
28344;BME280;15597;50.914;6.638;2023-07-20T09:32:18;100748.19;;;25.77;38.95
28344;BME280;15597;50.914;6.638;2023-07-20T09:34:45;100747.06;;;25.80;39.22
28344;BME280;15597;50.914;6.638;2023-07-20T09:37:11;100750.22;;;25.85;38.59
28344;BME280;15597;50.914;6.638;2023-07-20T09:39:46;100754.03;;;25.83;39.03
28344;BME280;15597;50.914;6.638;2023-07-20T09:42:12;100753.25;;;25.92;38.65
28344;BME280;15597;50.914;6.638;2023-07-20T09:44:43;100755.31;;;25.88;38.50
28344;BME280;15597;50.914;6.638;2023-07-20T09:47:09;100751.53;;;25.91;38.33
28344;BME280;15597;50.914;6.638;2023-07-20T09:49:41;100746.44;;;25.88;38.42
28344;BME280;15597;50.914;6.638;2023-07-20T09:52:11;100744.75;;;25.87;38.62
28344;BME280;15597;50.914;6.638;2023-07-20T09:54:40;100739.38;;;25.87;38.23
28344;BME280;15597;50.914;6.638;2023-07-20T09:57:09;100739.13;;;25.90;38.10
28344;BME280;15597;50.914;6.638;2023-07-20T09:59:37;100747.38;;;25.98;38.42
28344;BME280;15597;50.914;6.638;2023-07-20T10:02:11;100734.69;;;26.00;38.00
28344;BME280;15597;50.914;6.638;2023-07-20T10:04:39;100738.53;;;26.07;38.23
28344;BME280;15597;50.914;6.638;2023-07-20T10:07:10;100741.09;;;26.09;37.91
28344;BME280;15597;50.914;6.638;2023-07-20T10:09:39;100746.69;;;26.17;37.50
28344;BME280;15597;50.914;6.638;2023-07-20T10:12:07;100743.59;;;26.22;37.41
28344;BME280;15597;50.914;6.638;2023-07-20T10:14:38;100743.06;;;26.28;37.60
28344;BME280;15597;50.914;6.638;2023-07-20T10:17:07;100739.47;;;26.39;37.22
28344;BME280;15597;50.914;6.638;2023-07-20T10:19:43;100742.28;;;26.37;37.44
28344;BME280;15597;50.914;6.638;2023-07-20T10:22:19;100735.94;;;26.38;37.12
28344;BME280;15597;50.914;6.638;2023-07-20T10:24:50;100739.06;;;26.44;37.14
28344;BME280;15597;50.914;6.638;2023-07-20T10:27:17;100734.41;;;26.46;36.27
28344;BME280;15597;50.914;6.638;2023-07-20T10:29:43;100733.56;;;26.45;36.85
28344;BME280;15597;50.914;6.638;2023-07-20T10:32:09;100730.47;;;26.50;36.62
28344;BME280;15597;50.914;6.638;2023-07-20T10:34:35;100726.31;;;26.57;36.54
28344;BME280;15597;50.914;6.638;2023-07-20T10:37:01;100726.47;;;26.65;36.20
28344;BME280;15597;50.914;6.638;2023-07-20T10:39:31;100718.16;;;26.68;36.07
28344;BME280;15597;50.914;6.638;2023-07-20T10:44:27;100713.63;;;26.69;35.80
28344;BME280;15597;50.914;6.638;2023-07-20T10:46:59;100709.38;;;26.66;35.59
28344;BME280;15597;50.914;6.638;2023-07-20T10:49:25;100702.63;;;26.72;35.67
28344;BME280;15597;50.914;6.638;2023-07-20T10:51:59;100696.69;;;26.68;35.30
28344;BME280;15597;50.914;6.638;2023-07-20T10:56:50;100698.03;;;26.84;35.23
28344;BME280;15597;50.914;6.638;2023-07-20T10:59:36;100693.50;;;26.85;35.03
28344;BME280;15597;50.914;6.638;2023-07-20T11:02:06;100693.38;;;26.96;34.76
28344;BME280;15597;50.914;6.638;2023-07-20T11:04:42;100692.00;;;27.02;35.01
28344;BME280;15597;50.914;6.638;2023-07-20T11:07:08;100699.94;;;27.13;35.05
28344;BME280;15597;50.914;6.638;2023-07-20T11:09:38;100694.88;;;27.20;34.45
28344;BME280;15597;50.914;6.638;2023-07-20T11:12:14;100696.84;;;27.27;34.12
28344;BME280;15597;50.914;6.638;2023-07-20T11:17:11;100694.72;;;27.41;33.58
28344;BME280;15597;50.914;6.638;2023-07-20T11:19:39;100692.91;;;27.51;33.40
28344;BME280;15597;50.914;6.638;2023-07-20T11:22:06;100688.72;;;27.59;33.33
28344;BME280;15597;50.914;6.638;2023-07-20T11:24:38;100689.81;;;27.56;33.25
28344;BME280;15597;50.914;6.638;2023-07-20T11:27:04;100696.59;;;27.60;33.52
28344;BME280;15597;50.914;6.638;2023-07-20T11:29:30;100687.56;;;27.71;33.45
28344;BME280;15597;50.914;6.638;2023-07-20T11:31:56;100675.94;;;27.80;33.14
28344;BME280;15597;50.914;6.638;2023-07-20T11:34:24;100687.53;;;27.91;32.83
28344;BME280;15597;50.914;6.638;2023-07-20T11:36:51;100682.28;;;27.99;32.66
28344;BME280;15597;50.914;6.638;2023-07-20T11:39:19;100684.94;;;28.09;32.66
28344;BME280;15597;50.914;6.638;2023-07-20T11:41:49;100690.31;;;28.09;32.23
28344;BME280;15597;50.914;6.638;2023-07-20T11:44:16;100681.13;;;28.11;32.62
28344;BME280;15597;50.914;6.638;2023-07-20T11:46:43;100688.91;;;28.14;32.28
28344;BME280;15597;50.914;6.638;2023-07-20T11:49:09;100684.94;;;28.19;32.05
28344;BME280;15597;50.914;6.638;2023-07-20T11:51:36;100692.03;;;28.20;31.99
28344;BME280;15597;50.914;6.638;2023-07-20T11:54:03;100686.94;;;27.97;32.07
28344;BME280;15597;50.914;6.638;2023-07-20T11:56:29;100684.97;;;27.99;32.06
28344;BME280;15597;50.914;6.638;2023-07-20T11:58:57;100681.56;;;27.97;32.33
28344;BME280;15597;50.914;6.638;2023-07-20T12:01:28;100681.88;;;27.94;32.10
28344;BME280;15597;50.914;6.638;2023-07-20T12:03:59;100674.38;;;27.88;32.01
28344;BME280;15597;50.914;6.638;2023-07-20T12:06:26;100683.28;;;27.88;31.97
28344;BME280;15597;50.914;6.638;2023-07-20T12:08:55;100680.75;;;27.87;31.84
28344;BME280;15597;50.914;6.638;2023-07-20T12:11:37;100681.03;;;27.83;32.07
28344;BME280;15597;50.914;6.638;2023-07-20T12:14:04;100668.84;;;27.89;31.57
28344;BME280;15597;50.914;6.638;2023-07-20T12:16:31;100678.34;;;27.83;31.57
28344;BME280;15597;50.914;6.638;2023-07-20T12:19:00;100675.94;;;27.80;31.44
28344;BME280;15597;50.914;6.638;2023-07-20T12:21:28;100673.38;;;27.89;31.97
28344;BME280;15597;50.914;6.638;2023-07-20T12:23:55;100674.09;;;27.91;31.74
28344;BME280;15597;50.914;6.638;2023-07-20T12:26:21;100672.66;;;27.96;31.69
28344;BME280;15597;50.914;6.638;2023-07-20T12:28:49;100670.53;;;28.00;31.54
28344;BME280;15597;50.914;6.638;2023-07-20T12:31:15;100666.84;;;28.01;31.38
28344;BME280;15597;50.914;6.638;2023-07-20T12:33:41;100670.53;;;28.00;31.68
28344;BME280;15597;50.914;6.638;2023-07-20T12:36:09;100664.16;;;28.01;31.19
28344;BME280;15597;50.914;6.638;2023-07-20T12:38:34;100658.91;;;27.99;31.86
28344;BME280;15597;50.914;6.638;2023-07-20T12:41:01;100659.47;;;28.03;31.46
28344;BME280;15597;50.914;6.638;2023-07-20T12:43:27;100661.19;;;28.04;31.26
28344;BME280;15597;50.914;6.638;2023-07-20T12:45:54;100655.22;;;28.10;31.35
28344;BME280;15597;50.914;6.638;2023-07-20T12:48:20;100661.72;;;28.18;31.25
28344;BME280;15597;50.914;6.638;2023-07-20T12:50:46;100668.81;;;28.19;31.36
28344;BME280;15597;50.914;6.638;2023-07-20T12:53:11;100663.97;;;28.12;31.61
28344;BME280;15597;50.914;6.638;2023-07-20T12:55:37;100668.66;;;28.10;31.33
28344;BME280;15597;50.914;6.638;2023-07-20T12:58:03;100667.97;;;28.08;31.42
28344;BME280;15597;50.914;6.638;2023-07-20T13:00:29;100671.34;;;28.10;31.34
28344;BME280;15597;50.914;6.638;2023-07-20T13:02:55;100660.59;;;28.10;31.31
28344;BME280;15597;50.914;6.638;2023-07-20T13:05:20;100656.22;;;28.09;31.14